Stack Town, Pennsylvania
Current Conditions -  °F | °C
As of 6:56 PM on Saturday 25 Oct 2014 (Local Time) from KMDT Reporting Station
Few Clouds Few Clouds  
Wind Chill: 65°   Ceiling: Unl
Heat Index: 65°   Visibility: 10mi
Dew Point: 46°   Wind: 12mph
Humidity: 50%   Direction: 230°SW
Pressure: 29.67"   Gusts: NA
Location:  40.1066°N, 76.6626°W
Report Text: KMDT 252256Z 23010KT 10SM FEW060 18/08 A2967 RMK AO2 SLP048 T01830078
Loading
Personal Weather Stations






























Interactive Weather Map
Tropical Storm Tracking
New forecast layout! Learn more

10-Day Weather Forecast

Advertisements
Track Severe Weather on mobile